Abercrombie, North Dakota
Current Conditions -  °F | °C
As of 3:35 PM on Saturday 20 Dec 2014 (Local Time) from KBWP Reporting Station
Overcast Overcast  
Wind Chill: -5°   Ceiling: 700
Heat Index:   Visibility: 4mi
Dew Point: -2°   Wind: 12mph
Humidity: 87%   Direction: 170°S
Pressure: 29.99"   Gusts: NA
Location:  46.45°N, 96.73°W
Report Text: KBWP 202135Z AUTO 17010KT 4SM OVC007 00/M02 A2999 RMK AO1
Loading
Personal Weather Stations






























Interactive Weather Map New forecast layout! Learn more

10-Day Weather Forecast

Advertisements
Track Severe Weather on mobile